sensor_id;sensor_type;location;lat;lon;timestamp;temperature;humidity
62555;DHT22;48610;52.144;8.624;2023-08-12T00:01:58;20.30;99.90
62555;DHT22;48610;52.144;8.624;2023-08-12T00:04:59;20.40;99.90
62555;DHT22;48610;52.144;8.624;2023-08-12T00:07:59;20.40;99.90
62555;DHT22;48610;52.144;8.624;2023-08-12T00:11:00;20.50;99.90
62555;DHT22;48610;52.144;8.624;2023-08-12T00:14:00;20.60;99.90
62555;DHT22;48610;52.144;8.624;2023-08-12T00:17:01;20.70;99.90
62555;DHT22;48610;52.144;8.624;2023-08-12T00:20:04;20.70;99.90
62555;DHT22;48610;52.144;8.624;2023-08-12T00:23:10;20.70;99.90
62555;DHT22;48610;52.144;8.624;2023-08-12T00:26:11;20.80;99.90
62555;DHT22;48610;52.144;8.624;2023-08-12T00:29:12;20.80;99.90
62555;DHT22;48610;52.144;8.624;2023-08-12T00:32:12;20.70;99.90
62555;DHT22;48610;52.144;8.624;2023-08-12T00:35:13;20.60;99.90
62555;DHT22;48610;52.144;8.624;2023-08-12T00:38:13;20.60;99.90
62555;DHT22;48610;52.144;8.624;2023-08-12T00:41:14;20.40;99.90
62555;DHT22;48610;52.144;8.624;2023-08-12T00:44:15;20.50;99.90
62555;DHT22;48610;52.144;8.624;2023-08-12T00:47:16;20.40;99.90
62555;DHT22;48610;52.144;8.624;2023-08-12T00:50:17;20.40;99.90
62555;DHT22;48610;52.144;8.624;2023-08-12T00:53:18;20.50;99.90
62555;DHT22;48610;52.144;8.624;2023-08-12T00:56:18;20.60;99.90
62555;DHT22;48610;52.144;8.624;2023-08-12T00:59:20;20.70;99.90
62555;DHT22;48610;52.144;8.624;2023-08-12T01:02:21;20.80;99.90
62555;DHT22;48610;52.144;8.624;2023-08-12T01:05:23;20.70;99.90
62555;DHT22;48610;52.144;8.624;2023-08-12T01:08:28;20.70;99.90
62555;DHT22;48610;52.144;8.624;2023-08-12T01:11:50;20.70;99.90
62555;DHT22;48610;52.144;8.624;2023-08-12T01:15:07;20.80;99.90
62555;DHT22;48610;52.144;8.624;2023-08-12T01:18:08;20.90;99.90
62555;DHT22;48610;52.144;8.624;2023-08-12T01:21:15;20.90;99.90
62555;DHT22;48610;52.144;8.624;2023-08-12T01:24:16;20.90;99.90
62555;DHT22;48610;52.144;8.624;2023-08-12T01:27:19;20.70;99.90
62555;DHT22;48610;52.144;8.624;2023-08-12T01:30:20;20.60;99.90
62555;DHT22;48610;52.144;8.624;2023-08-12T01:33:42;20.80;99.90
62555;DHT22;48610;52.144;8.624;2023-08-12T01:36:46;20.70;99.90
62555;DHT22;48610;52.144;8.624;2023-08-12T01:39:50;20.60;99.90
62555;DHT22;48610;52.144;8.624;2023-08-12T01:42:52;20.50;99.90
62555;DHT22;48610;52.144;8.624;2023-08-12T01:45:53;20.40;99.90
62555;DHT22;48610;52.144;8.624;2023-08-12T01:48:53;20.30;99.90
62555;DHT22;48610;52.144;8.624;2023-08-12T01:51:54;20.40;99.90
62555;DHT22;48610;52.144;8.624;2023-08-12T01:54:55;20.40;99.90
62555;DHT22;48610;52.144;8.624;2023-08-12T01:57:55;20.50;99.90
62555;DHT22;48610;52.144;8.624;2023-08-12T02:00:57;20.50;99.90
62555;DHT22;48610;52.144;8.624;2023-08-12T02:03:57;20.50;99.90
62555;DHT22;48610;52.144;8.624;2023-08-12T02:06:58;20.40;99.90
62555;DHT22;48610;52.144;8.624;2023-08-12T02:09:58;20.20;99.90
62555;DHT22;48610;52.144;8.624;2023-08-12T02:12:59;20.20;99.90
62555;DHT22;48610;52.144;8.624;2023-08-12T02:16:00;20.30;99.90
62555;DHT22;48610;52.144;8.624;2023-08-12T02:19:00;20.20;99.90
62555;DHT22;48610;52.144;8.624;2023-08-12T02:22:01;20.20;99.90
62555;DHT22;48610;52.144;8.624;2023-08-12T02:25:04;20.20;99.90
62555;DHT22;48610;52.144;8.624;2023-08-12T02:28:05;19.90;99.90
62555;DHT22;48610;52.144;8.624;2023-08-12T02:31:05;19.90;99.90
62555;DHT22;48610;52.144;8.624;2023-08-12T02:34:06;19.90;99.90
62555;DHT22;48610;52.144;8.624;2023-08-12T02:37:07;20.10;99.90
62555;DHT22;48610;52.144;8.624;2023-08-12T02:40:08;20.10;99.90
62555;DHT22;48610;52.144;8.624;2023-08-12T02:43:09;20.00;99.90
62555;DHT22;48610;52.144;8.624;2023-08-12T02:46:12;19.90;99.90
62555;DHT22;48610;52.144;8.624;2023-08-12T02:49:15;19.90;99.90
62555;DHT22;48610;52.144;8.624;2023-08-12T02:52:16;19.90;99.90
62555;DHT22;48610;52.144;8.624;2023-08-12T02:55:16;19.90;99.90
62555;DHT22;48610;52.144;8.624;2023-08-12T02:58:17;20.00;99.90
62555;DHT22;48610;52.144;8.624;2023-08-12T03:01:17;20.10;99.90
62555;DHT22;48610;52.144;8.624;2023-08-12T03:04:18;20.10;99.90
62555;DHT22;48610;52.144;8.624;2023-08-12T03:07:18;20.00;99.90
62555;DHT22;48610;52.144;8.624;2023-08-12T03:10:19;20.00;99.90
62555;DHT22;48610;52.144;8.624;2023-08-12T03:13:20;19.80;99.90
62555;DHT22;48610;52.144;8.624;2023-08-12T03:16:20;19.90;99.90
62555;DHT22;48610;52.144;8.624;2023-08-12T03:19:21;19.90;99.90
62555;DHT22;48610;52.144;8.624;2023-08-12T03:22:21;19.90;99.90
62555;DHT22;48610;52.144;8.624;2023-08-12T03:25:22;19.90;99.90
62555;DHT22;48610;52.144;8.624;2023-08-12T03:28:23;19.90;99.90
62555;DHT22;48610;52.144;8.624;2023-08-12T03:31:23;19.80;99.90
62555;DHT22;48610;52.144;8.624;2023-08-12T03:34:24;19.80;99.90
62555;DHT22;48610;52.144;8.624;2023-08-12T03:37:25;19.80;99.90
62555;DHT22;48610;52.144;8.624;2023-08-12T03:40:26;19.80;99.90
62555;DHT22;48610;52.144;8.624;2023-08-12T03:43:27;19.80;99.90
62555;DHT22;48610;52.144;8.624;2023-08-12T03:46:27;19.80;99.90
62555;DHT22;48610;52.144;8.624;2023-08-12T03:49:28;19.70;99.90
62555;DHT22;48610;52.144;8.624;2023-08-12T03:52:29;19.80;99.90
62555;DHT22;48610;52.144;8.624;2023-08-12T03:55:35;19.80;99.90
62555;DHT22;48610;52.144;8.624;2023-08-12T03:58:36;19.80;99.90
62555;DHT22;48610;52.144;8.624;2023-08-12T04:01:37;19.80;99.90
62555;DHT22;48610;52.144;8.624;2023-08-12T04:04:38;19.80;99.90
62555;DHT22;48610;52.144;8.624;2023-08-12T04:07:38;19.80;99.90
62555;DHT22;48610;52.144;8.624;2023-08-12T04:10:39;19.80;99.90
62555;DHT22;48610;52.144;8.624;2023-08-12T04:13:40;19.70;99.90
62555;DHT22;48610;52.144;8.624;2023-08-12T04:16:40;19.70;99.90
62555;DHT22;48610;52.144;8.624;2023-08-12T04:19:41;19.80;99.90
62555;DHT22;48610;52.144;8.624;2023-08-12T04:22:42;19.80;99.90
62555;DHT22;48610;52.144;8.624;2023-08-12T04:25:44;19.80;99.90
62555;DHT22;48610;52.144;8.624;2023-08-12T04:28:45;20.00;99.90
62555;DHT22;48610;52.144;8.624;2023-08-12T04:31:46;19.90;99.90
62555;DHT22;48610;52.144;8.624;2023-08-12T04:34:46;20.00;99.90
62555;DHT22;48610;52.144;8.624;2023-08-12T04:37:47;20.00;99.90
62555;DHT22;48610;52.144;8.624;2023-08-12T04:40:47;20.00;99.90
62555;DHT22;48610;52.144;8.624;2023-08-12T04:43:48;19.90;99.90
62555;DHT22;48610;52.144;8.624;2023-08-12T04:46:48;19.80;99.90
62555;DHT22;48610;52.144;8.624;2023-08-12T04:49:51;19.80;99.90
62555;DHT22;48610;52.144;8.624;2023-08-12T04:52:52;19.90;99.90
62555;DHT22;48610;52.144;8.624;2023-08-12T04:55:53;19.90;99.90
62555;DHT22;48610;52.144;8.624;2023-08-12T04:58:55;19.90;99.90
62555;DHT22;48610;52.144;8.624;2023-08-12T05:01:56;19.70;99.90
62555;DHT22;48610;52.144;8.624;2023-08-12T05:04:56;19.90;99.90
62555;DHT22;48610;52.144;8.624;2023-08-12T05:07:57;19.80;99.90
62555;DHT22;48610;52.144;8.624;2023-08-12T05:10:57;19.90;99.90
62555;DHT22;48610;52.144;8.624;2023-08-12T05:13:58;19.80;99.90
62555;DHT22;48610;52.144;8.624;2023-08-12T05:16:59;19.80;99.90
62555;DHT22;48610;52.144;8.624;2023-08-12T05:19:59;19.70;99.90
62555;DHT22;48610;52.144;8.624;2023-08-12T05:23:00;19.60;99.90
62555;DHT22;48610;52.144;8.624;2023-08-12T05:26:00;19.60;99.90
62555;DHT22;48610;52.144;8.624;2023-08-12T05:29:01;19.70;99.90
62555;DHT22;48610;52.144;8.624;2023-08-12T05:32:02;19.80;99.90
62555;DHT22;48610;52.144;8.624;2023-08-12T05:35:02;19.80;99.90
62555;DHT22;48610;52.144;8.624;2023-08-12T05:38:03;19.90;99.90
62555;DHT22;48610;52.144;8.624;2023-08-12T05:41:04;20.10;99.90
62555;DHT22;48610;52.144;8.624;2023-08-12T05:44:07;19.90;99.90
62555;DHT22;48610;52.144;8.624;2023-08-12T05:47:08;19.80;99.90
62555;DHT22;48610;52.144;8.624;2023-08-12T05:50:09;19.70;99.90
62555;DHT22;48610;52.144;8.624;2023-08-12T05:53:09;19.40;99.90
62555;DHT22;48610;52.144;8.624;2023-08-12T05:56:10;19.30;99.90
62555;DHT22;48610;52.144;8.624;2023-08-12T05:59:11;19.40;99.90
62555;DHT22;48610;52.144;8.624;2023-08-12T06:02:11;19.50;99.90
62555;DHT22;48610;52.144;8.624;2023-08-12T06:05:12;19.50;99.90
62555;DHT22;48610;52.144;8.624;2023-08-12T06:08:14;19.30;99.90
62555;DHT22;48610;52.144;8.624;2023-08-12T06:11:15;19.40;99.90
62555;DHT22;48610;52.144;8.624;2023-08-12T06:14:15;19.50;99.90
62555;DHT22;48610;52.144;8.624;2023-08-12T06:17:16;19.50;99.90
62555;DHT22;48610;52.144;8.624;2023-08-12T06:20:16;19.40;99.90
62555;DHT22;48610;52.144;8.624;2023-08-12T06:23:17;19.50;99.90
62555;DHT22;48610;52.144;8.624;2023-08-12T06:26:17;19.60;99.90
62555;DHT22;48610;52.144;8.624;2023-08-12T06:29:18;19.80;99.90
62555;DHT22;48610;52.144;8.624;2023-08-12T06:32:18;20.00;99.90
62555;DHT22;48610;52.144;8.624;2023-08-12T06:35:19;19.80;99.90
62555;DHT22;48610;52.144;8.624;2023-08-12T06:38:20;19.90;99.90
62555;DHT22;48610;52.144;8.624;2023-08-12T06:41:20;20.10;99.90
62555;DHT22;48610;52.144;8.624;2023-08-12T06:44:21;20.20;99.90
62555;DHT22;48610;52.144;8.624;2023-08-12T06:47:22;20.10;99.90
62555;DHT22;48610;52.144;8.624;2023-08-12T06:50:22;20.20;99.90
62555;DHT22;48610;52.144;8.624;2023-08-12T06:53:25;20.20;99.90
62555;DHT22;48610;52.144;8.624;2023-08-12T06:56:26;20.20;99.90
62555;DHT22;48610;52.144;8.624;2023-08-12T06:59:27;20.30;99.90
62555;DHT22;48610;52.144;8.624;2023-08-12T07:02:27;20.50;99.90
62555;DHT22;48610;52.144;8.624;2023-08-12T07:05:28;20.70;99.90
62555;DHT22;48610;52.144;8.624;2023-08-12T07:08:28;20.80;99.90
62555;DHT22;48610;52.144;8.624;2023-08-12T07:11:29;20.80;99.90
62555;DHT22;48610;52.144;8.624;2023-08-12T07:14:30;20.80;99.90
62555;DHT22;48610;52.144;8.624;2023-08-12T07:17:30;20.80;99.90
62555;DHT22;48610;52.144;8.624;2023-08-12T07:20:31;20.90;99.90
62555;DHT22;48610;52.144;8.624;2023-08-12T07:23:31;20.90;99.90
62555;DHT22;48610;52.144;8.624;2023-08-12T07:26:32;20.80;99.90
62555;DHT22;48610;52.144;8.624;2023-08-12T07:29:32;20.90;99.90
62555;DHT22;48610;52.144;8.624;2023-08-12T07:32:33;20.80;99.90
62555;DHT22;48610;52.144;8.624;2023-08-12T07:35:34;20.90;99.90
62555;DHT22;48610;52.144;8.624;2023-08-12T07:38:35;21.20;99.90
62555;DHT22;48610;52.144;8.624;2023-08-12T07:41:35;21.00;99.90
62555;DHT22;48610;52.144;8.624;2023-08-12T07:44:36;21.00;99.90
62555;DHT22;48610;52.144;8.624;2023-08-12T07:47:36;20.90;99.90
62555;DHT22;48610;52.144;8.624;2023-08-12T07:50:37;20.90;99.90
62555;DHT22;48610;52.144;8.624;2023-08-12T07:53:38;20.80;99.90
62555;DHT22;48610;52.144;8.624;2023-08-12T07:56:38;20.90;99.90
62555;DHT22;48610;52.144;8.624;2023-08-12T07:59:39;20.90;99.90
62555;DHT22;48610;52.144;8.624;2023-08-12T08:02:40;21.10;99.90
62555;DHT22;48610;52.144;8.624;2023-08-12T08:05:41;21.40;99.90
62555;DHT22;48610;52.144;8.624;2023-08-12T08:08:42;21.30;99.90
62555;DHT22;48610;52.144;8.624;2023-08-12T08:11:43;21.30;99.90
62555;DHT22;48610;52.144;8.624;2023-08-12T08:14:43;21.20;99.90
62555;DHT22;48610;52.144;8.624;2023-08-12T08:17:44;21.20;99.90
62555;DHT22;48610;52.144;8.624;2023-08-12T08:20:44;21.30;99.90
62555;DHT22;48610;52.144;8.624;2023-08-12T08:23:45;21.50;99.90
62555;DHT22;48610;52.144;8.624;2023-08-12T08:26:46;21.40;99.90
62555;DHT22;48610;52.144;8.624;2023-08-12T08:29:47;21.60;99.90
62555;DHT22;48610;52.144;8.624;2023-08-12T08:32:48;21.50;99.90
62555;DHT22;48610;52.144;8.624;2023-08-12T08:35:48;21.60;99.90
62555;DHT22;48610;52.144;8.624;2023-08-12T08:38:49;21.70;99.90
62555;DHT22;48610;52.144;8.624;2023-08-12T08:41:50;21.50;99.90
62555;DHT22;48610;52.144;8.624;2023-08-12T08:44:52;21.40;99.90
62555;DHT22;48610;52.144;8.624;2023-08-12T08:47:56;21.40;99.90
62555;DHT22;48610;52.144;8.624;2023-08-12T08:50:57;21.30;99.90
62555;DHT22;48610;52.144;8.624;2023-08-12T08:53:58;21.40;99.90
62555;DHT22;48610;52.144;8.624;2023-08-12T08:56:59;21.50;99.90
62555;DHT22;48610;52.144;8.624;2023-08-12T09:00:00;21.60;99.90
62555;DHT22;48610;52.144;8.624;2023-08-12T09:03:01;21.60;99.90
62555;DHT22;48610;52.144;8.624;2023-08-12T09:06:02;21.20;99.90
62555;DHT22;48610;52.144;8.624;2023-08-12T09:09:06;21.20;99.90
62555;DHT22;48610;52.144;8.624;2023-08-12T09:12:14;21.50;99.90
62555;DHT22;48610;52.144;8.624;2023-08-12T09:15:16;21.60;99.90
62555;DHT22;48610;52.144;8.624;2023-08-12T09:18:17;21.60;99.90
62555;DHT22;48610;52.144;8.624;2023-08-12T09:21:18;21.60;99.90
62555;DHT22;48610;52.144;8.624;2023-08-12T09:24:26;21.40;99.90
62555;DHT22;48610;52.144;8.624;2023-08-12T09:27:27;21.50;99.90
62555;DHT22;48610;52.144;8.624;2023-08-12T09:30:30;21.60;99.90
62555;DHT22;48610;52.144;8.624;2023-08-12T09:33:39;21.70;99.90
62555;DHT22;48610;52.144;8.624;2023-08-12T09:36:40;21.80;99.90
62555;DHT22;48610;52.144;8.624;2023-08-12T09:39:41;21.90;99.90
62555;DHT22;48610;52.144;8.624;2023-08-12T09:42:46;22.00;99.90
62555;DHT22;48610;52.144;8.624;2023-08-12T09:45:47;22.20;99.90
62555;DHT22;48610;52.144;8.624;2023-08-12T09:48:52;22.10;99.90
62555;DHT22;48610;52.144;8.624;2023-08-12T09:51:56;22.40;99.90
62555;DHT22;48610;52.144;8.624;2023-08-12T09:54:57;22.60;99.90
62555;DHT22;48610;52.144;8.624;2023-08-12T09:57:59;22.60;99.90
62555;DHT22;48610;52.144;8.624;2023-08-12T10:01:00;22.80;99.90
62555;DHT22;48610;52.144;8.624;2023-08-12T10:04:05;22.80;99.90
62555;DHT22;48610;52.144;8.624;2023-08-12T10:07:10;22.90;99.90
62555;DHT22;48610;52.144;8.624;2023-08-12T10:10:11;23.00;99.90
62555;DHT22;48610;52.144;8.624;2023-08-12T10:13:13;22.90;99.90
62555;DHT22;48610;52.144;8.624;2023-08-12T10:16:15;22.90;99.90
62555;DHT22;48610;52.144;8.624;2023-08-12T10:19:16;23.00;99.90
62555;DHT22;48610;52.144;8.624;2023-08-12T10:22:18;23.20;99.90
62555;DHT22;48610;52.144;8.624;2023-08-12T10:25:19;23.30;99.90
62555;DHT22;48610;52.144;8.624;2023-08-12T10:28:22;23.60;99.90
62555;DHT22;48610;52.144;8.624;2023-08-12T10:31:26;23.40;99.90
62555;DHT22;48610;52.144;8.624;2023-08-12T10:34:28;23.30;99.90
62555;DHT22;48610;52.144;8.624;2023-08-12T10:37:32;23.10;99.90
62555;DHT22;48610;52.144;8.624;2023-08-12T10:40:34;23.20;99.90
62555;DHT22;48610;52.144;8.624;2023-08-12T10:43:49;22.90;99.90
62555;DHT22;48610;52.144;8.624;2023-08-12T10:46:50;22.80;99.90
62555;DHT22;48610;52.144;8.624;2023-08-12T10:49:53;22.80;99.90
62555;DHT22;48610;52.144;8.624;2023-08-12T10:52:54;22.80;99.90
62555;DHT22;48610;52.144;8.624;2023-08-12T10:55:59;22.80;99.90
62555;DHT22;48610;52.144;8.624;2023-08-12T10:59:00;22.80;99.90
62555;DHT22;48610;52.144;8.624;2023-08-12T11:02:07;22.90;99.90
62555;DHT22;48610;52.144;8.624;2023-08-12T11:05:13;23.10;99.90
62555;DHT22;48610;52.144;8.624;2023-08-12T11:08:14;23.30;99.90
62555;DHT22;48610;52.144;8.624;2023-08-12T11:11:24;23.30;99.90
62555;DHT22;48610;52.144;8.624;2023-08-12T11:14:25;23.20;99.90
62555;DHT22;48610;52.144;8.624;2023-08-12T11:17:42;23.10;99.90
62555;DHT22;48610;52.144;8.624;2023-08-12T11:20:42;23.20;99.90
62555;DHT22;48610;52.144;8.624;2023-08-12T11:23:44;23.40;99.90
62555;DHT22;48610;52.144;8.624;2023-08-12T11:26:46;23.50;99.90
62555;DHT22;48610;52.144;8.624;2023-08-12T11:29:46;23.80;99.90
62555;DHT22;48610;52.144;8.624;2023-08-12T11:32:53;23.40;99.90
62555;DHT22;48610;52.144;8.624;2023-08-12T11:35:54;23.30;99.90
62555;DHT22;48610;52.144;8.624;2023-08-12T11:38:55;23.30;99.90
62555;DHT22;48610;52.144;8.624;2023-08-12T11:41:56;23.30;99.90
62555;DHT22;48610;52.144;8.624;2023-08-12T11:44:58;23.20;99.90
62555;DHT22;48610;52.144;8.624;2023-08-12T11:47:58;23.20;99.90
62555;DHT22;48610;52.144;8.624;2023-08-12T11:50:59;23.30;99.90
62555;DHT22;48610;52.144;8.624;2023-08-12T11:54:00;23.50;99.90
62555;DHT22;48610;52.144;8.624;2023-08-12T11:57:01;23.60;99.90
62555;DHT22;48610;52.144;8.624;2023-08-12T12:00:05;23.50;99.90
62555;DHT22;48610;52.144;8.624;2023-08-12T12:03:09;23.40;99.90
62555;DHT22;48610;52.144;8.624;2023-08-12T12:06:09;23.40;99.90
62555;DHT22;48610;52.144;8.624;2023-08-12T12:09:10;23.30;99.90
62555;DHT22;48610;52.144;8.624;2023-08-12T12:12:10;23.20;99.90
62555;DHT22;48610;52.144;8.624;2023-08-12T12:15:13;23.40;99.90
62555;DHT22;48610;52.144;8.624;2023-08-12T12:18:15;23.60;99.90
62555;DHT22;48610;52.144;8.624;2023-08-12T12:21:20;23.70;99.90
62555;DHT22;48610;52.144;8.624;2023-08-12T12:24:22;24.00;99.90
62555;DHT22;48610;52.144;8.624;2023-08-12T12:27:24;24.60;99.90
62555;DHT22;48610;52.144;8.624;2023-08-12T12:30:25;24.50;99.90
62555;DHT22;48610;52.144;8.624;2023-08-12T12:33:25;24.60;99.90
62555;DHT22;48610;52.144;8.624;2023-08-12T12:36:26;24.20;99.90
62555;DHT22;48610;52.144;8.624;2023-08-12T12:39:26;23.90;99.90
62555;DHT22;48610;52.144;8.624;2023-08-12T12:42:27;24.00;99.90
62555;DHT22;48610;52.144;8.624;2023-08-12T12:45:28;23.90;99.90
62555;DHT22;48610;52.144;8.624;2023-08-12T12:48:28;23.70;99.90
62555;DHT22;48610;52.144;8.624;2023-08-12T12:51:29;23.60;99.90
62555;DHT22;48610;52.144;8.624;2023-08-12T12:54:29;23.60;99.90
62555;DHT22;48610;52.144;8.624;2023-08-12T12:57:31;23.70;99.90
62555;DHT22;48610;52.144;8.624;2023-08-12T13:00:31;23.60;99.90
62555;DHT22;48610;52.144;8.624;2023-08-12T13:03:32;23.40;99.90
62555;DHT22;48610;52.144;8.624;2023-08-12T13:06:32;23.40;99.90
62555;DHT22;48610;52.144;8.624;2023-08-12T13:09:33;23.30;99.90
62555;DHT22;48610;52.144;8.624;2023-08-12T13:12:34;23.30;99.90
62555;DHT22;48610;52.144;8.624;2023-08-12T13:15:35;23.30;99.90
62555;DHT22;48610;52.144;8.624;2023-08-12T13:18:35;23.10;99.90
62555;DHT22;48610;52.144;8.624;2023-08-12T13:21:36;23.00;99.90
62555;DHT22;48610;52.144;8.624;2023-08-12T13:24:37;23.00;99.90
62555;DHT22;48610;52.144;8.624;2023-08-12T13:27:37;23.00;99.90
62555;DHT22;48610;52.144;8.624;2023-08-12T13:30:38;23.20;99.90
62555;DHT22;48610;52.144;8.624;2023-08-12T13:33:39;23.20;99.90
62555;DHT22;48610;52.144;8.624;2023-08-12T13:36:40;23.10;99.90
62555;DHT22;48610;52.144;8.624;2023-08-12T13:39:54;23.10;99.90
62555;DHT22;48610;52.144;8.624;2023-08-12T13:42:54;23.00;99.90
62555;DHT22;48610;52.144;8.624;2023-08-12T13:45:55;23.30;99.90
62555;DHT22;48610;52.144;8.624;2023-08-12T13:48:56;23.60;99.90
62555;DHT22;48610;52.144;8.624;2023-08-12T13:51:56;23.70;99.90
62555;DHT22;48610;52.144;8.624;2023-08-12T13:54:57;23.60;99.90
62555;DHT22;48610;52.144;8.624;2023-08-12T13:57:58;23.70;99.90
62555;DHT22;48610;52.144;8.624;2023-08-12T14:00:59;23.80;99.90
62555;DHT22;48610;52.144;8.624;2023-08-12T14:04:00;23.90;99.90
62555;DHT22;48610;52.144;8.624;2023-08-12T14:07:00;23.80;99.90
62555;DHT22;48610;52.144;8.624;2023-08-12T14:10:01;23.70;99.90
62555;DHT22;48610;52.144;8.624;2023-08-12T14:13:01;23.50;99.90
62555;DHT22;48610;52.144;8.624;2023-08-12T14:16:02;23.60;99.90
62555;DHT22;48610;52.144;8.624;2023-08-12T14:19:03;23.70;99.90
62555;DHT22;48610;52.144;8.624;2023-08-12T14:22:03;23.60;99.90
62555;DHT22;48610;52.144;8.624;2023-08-12T14:25:04;23.40;99.90
62555;DHT22;48610;52.144;8.624;2023-08-12T14:28:05;23.40;99.90
62555;DHT22;48610;52.144;8.624;2023-08-12T14:31:07;23.40;99.90
62555;DHT22;48610;52.144;8.624;2023-08-12T14:34:08;23.40;99.90
62555;DHT22;48610;52.144;8.624;2023-08-12T14:37:09;23.30;99.90
62555;DHT22;48610;52.144;8.624;2023-08-12T14:40:10;23.20;99.90
62555;DHT22;48610;52.144;8.624;2023-08-12T14:43:10;23.10;99.90
62555;DHT22;48610;52.144;8.624;2023-08-12T14:46:11;23.00;99.90
62555;DHT22;48610;52.144;8.624;2023-08-12T14:49:11;23.10;99.90
62555;DHT22;48610;52.144;8.624;2023-08-12T14:52:16;23.10;99.90
62555;DHT22;48610;52.144;8.624;2023-08-12T14:55:17;23.10;99.90
62555;DHT22;48610;52.144;8.624;2023-08-12T14:58:18;23.20;99.90
62555;DHT22;48610;52.144;8.624;2023-08-12T15:01:18;23.20;99.90
62555;DHT22;48610;52.144;8.624;2023-08-12T15:04:19;23.20;99.90
62555;DHT22;48610;52.144;8.624;2023-08-12T15:07:20;23.20;99.90
62555;DHT22;48610;52.144;8.624;2023-08-12T15:10:22;23.10;99.90
62555;DHT22;48610;52.144;8.624;2023-08-12T15:13:23;23.40;99.90
62555;DHT22;48610;52.144;8.624;2023-08-12T15:16:24;23.50;99.90
62555;DHT22;48610;52.144;8.624;2023-08-12T15:19:25;23.30;99.90
62555;DHT22;48610;52.144;8.624;2023-08-12T15:22:30;23.40;99.90
62555;DHT22;48610;52.144;8.624;2023-08-12T15:25:31;23.20;99.90
62555;DHT22;48610;52.144;8.624;2023-08-12T15:28:32;22.80;99.90
62555;DHT22;48610;52.144;8.624;2023-08-12T15:31:32;22.60;99.90
62555;DHT22;48610;52.144;8.624;2023-08-12T15:34:33;22.60;99.90
62555;DHT22;48610;52.144;8.624;2023-08-12T15:37:33;22.40;99.90
62555;DHT22;48610;52.144;8.624;2023-08-12T15:40:37;22.30;99.90
62555;DHT22;48610;52.144;8.624;2023-08-12T15:43:38;22.40;99.90
62555;DHT22;48610;52.144;8.624;2023-08-12T15:46:42;22.30;99.90
62555;DHT22;48610;52.144;8.624;2023-08-12T15:49:43;22.10;99.90
62555;DHT22;48610;52.144;8.624;2023-08-12T15:52:44;22.00;99.90
62555;DHT22;48610;52.144;8.624;2023-08-12T15:55:44;21.90;99.90
62555;DHT22;48610;52.144;8.624;2023-08-12T15:58:45;21.90;99.90
62555;DHT22;48610;52.144;8.624;2023-08-12T16:01:46;21.80;99.90
62555;DHT22;48610;52.144;8.624;2023-08-12T16:04:46;21.40;99.90
62555;DHT22;48610;52.144;8.624;2023-08-12T16:07:48;21.30;99.90
62555;DHT22;48610;52.144;8.624;2023-08-12T16:10:48;21.30;99.90
62555;DHT22;48610;52.144;8.624;2023-08-12T16:13:49;21.20;99.90
62555;DHT22;48610;52.144;8.624;2023-08-12T16:16:50;21.00;99.90
62555;DHT22;48610;52.144;8.624;2023-08-12T16:19:51;20.80;99.90
62555;DHT22;48610;52.144;8.624;2023-08-12T16:22:52;20.50;99.90
62555;DHT22;48610;52.144;8.624;2023-08-12T16:25:52;20.50;99.90
62555;DHT22;48610;52.144;8.624;2023-08-12T16:28:53;20.40;99.90
62555;DHT22;48610;52.144;8.624;2023-08-12T16:31:53;20.40;99.90
62555;DHT22;48610;52.144;8.624;2023-08-12T16:34:54;20.50;99.90
62555;DHT22;48610;52.144;8.624;2023-08-12T16:37:55;20.60;99.90
62555;DHT22;48610;52.144;8.624;2023-08-12T16:40:55;20.60;99.90
62555;DHT22;48610;52.144;8.624;2023-08-12T16:43:56;20.80;99.90
62555;DHT22;48610;52.144;8.624;2023-08-12T16:46:56;20.80;99.90
62555;DHT22;48610;52.144;8.624;2023-08-12T16:49:57;20.90;99.90
62555;DHT22;48610;52.144;8.624;2023-08-12T16:52:58;21.00;99.90
62555;DHT22;48610;52.144;8.624;2023-08-12T16:55:58;21.10;99.90
62555;DHT22;48610;52.144;8.624;2023-08-12T16:58:59;21.00;99.90
62555;DHT22;48610;52.144;8.624;2023-08-12T17:01:59;21.10;99.90
62555;DHT22;48610;52.144;8.624;2023-08-12T17:05:00;21.20;99.90
62555;DHT22;48610;52.144;8.624;2023-08-12T17:08:01;21.20;99.90
62555;DHT22;48610;52.144;8.624;2023-08-12T17:11:09;21.20;99.90
62555;DHT22;48610;52.144;8.624;2023-08-12T17:14:10;21.40;99.90
62555;DHT22;48610;52.144;8.624;2023-08-12T17:17:10;21.40;99.90
62555;DHT22;48610;52.144;8.624;2023-08-12T17:20:11;21.40;99.90
62555;DHT22;48610;52.144;8.624;2023-08-12T17:23:12;21.40;99.90
62555;DHT22;48610;52.144;8.624;2023-08-12T17:26:12;21.30;99.90
62555;DHT22;48610;52.144;8.624;2023-08-12T17:29:13;21.20;99.90
62555;DHT22;48610;52.144;8.624;2023-08-12T17:32:14;21.20;99.90
62555;DHT22;48610;52.144;8.624;2023-08-12T17:35:14;21.20;99.90
62555;DHT22;48610;52.144;8.624;2023-08-12T17:38:15;21.30;99.90
62555;DHT22;48610;52.144;8.624;2023-08-12T17:41:15;21.40;99.90
62555;DHT22;48610;52.144;8.624;2023-08-12T17:44:16;21.50;99.90
62555;DHT22;48610;52.144;8.624;2023-08-12T17:47:16;21.30;99.90
62555;DHT22;48610;52.144;8.624;2023-08-12T17:50:17;21.30;99.90
62555;DHT22;48610;52.144;8.624;2023-08-12T17:53:18;21.30;99.90
62555;DHT22;48610;52.144;8.624;2023-08-12T17:56:18;21.30;99.90
62555;DHT22;48610;52.144;8.624;2023-08-12T17:59:19;21.30;99.90
62555;DHT22;48610;52.144;8.624;2023-08-12T18:02:19;21.30;99.90
62555;DHT22;48610;52.144;8.624;2023-08-12T18:05:20;21.30;99.90
62555;DHT22;48610;52.144;8.624;2023-08-12T18:08:21;21.30;99.90
62555;DHT22;48610;52.144;8.624;2023-08-12T18:11:21;21.30;99.90
62555;DHT22;48610;52.144;8.624;2023-08-12T18:14:22;21.30;99.90
62555;DHT22;48610;52.144;8.624;2023-08-12T18:17:23;21.30;99.90
62555;DHT22;48610;52.144;8.624;2023-08-12T18:20:25;21.30;99.90
62555;DHT22;48610;52.144;8.624;2023-08-12T18:23:26;21.20;99.90
62555;DHT22;48610;52.144;8.624;2023-08-12T18:26:29;21.10;99.90
62555;DHT22;48610;52.144;8.624;2023-08-12T18:29:29;21.10;99.90
62555;DHT22;48610;52.144;8.624;2023-08-12T18:32:30;21.00;99.90
62555;DHT22;48610;52.144;8.624;2023-08-12T18:35:31;21.00;99.90
62555;DHT22;48610;52.144;8.624;2023-08-12T18:38:31;20.90;99.90
62555;DHT22;48610;52.144;8.624;2023-08-12T18:41:32;20.90;99.90
62555;DHT22;48610;52.144;8.624;2023-08-12T18:44:33;20.90;99.90
62555;DHT22;48610;52.144;8.624;2023-08-12T18:47:33;20.90;99.90
62555;DHT22;48610;52.144;8.624;2023-08-12T18:50:35;20.90;99.90
62555;DHT22;48610;52.144;8.624;2023-08-12T18:53:35;20.70;99.90
62555;DHT22;48610;52.144;8.624;2023-08-12T18:56:36;20.60;99.90
62555;DHT22;48610;52.144;8.624;2023-08-12T18:59:37;20.50;99.90
62555;DHT22;48610;52.144;8.624;2023-08-12T19:02:37;20.40;99.90
62555;DHT22;48610;52.144;8.624;2023-08-12T19:05:38;20.20;99.90